< < Back
Terminal Aerodrome Forecast


Current Version              Previous Versions:   1  2  3  4  5  6  7  8  9  

Terminal Aerodrome Forecast

072
FTUS42 KFFC 292329
TAFPDK
TAF
KPDK 292329Z 3000/3024 21007KT P6SM BKN100
     FM300100 21006KT P6SM BKN050
     FM300300 23007KT P6SM VCSH BKN025 OVC080
     FM300500 32015G25KT P6SM OVC025
     FM300700 32012KT P6SM BKN020
     FM301200 32014KT P6SM SCT040
     FM301500 32014G24KT P6SM SCT150=

Latest METAR

765
SAUS70 KWBC 300500 RRB
MTRPDK
METAR KPDK 300453Z AUTO 23005KT 10SM OVC049 12/02 A3008 RMK AO2 RAE03
SLP186 P0000 T01170017 401441017


USA.gov is the U.S. government's official web portal to all federal, state and local government web resources and services.